Time;durP1;ratioP1;P1;durP2;ratioP2;P2;SDS_P1;SDS_P2;PMS_P1;PMS_P2;Temp;Humidity;BMP_temperature;BMP_pressure;BME280_temperature;BME280_humidity;BME280_pressure;Samples;Min_cycle;Max_cycle;Signal;HPM_P1;HPM_P2
2022/03/06 00:03:08;;;;;;;23.42;11.45;;;-4.70;99.90;;;;;;21066514;28;20461;-55
2022/03/06 00:13:13;;;;;;;27.42;12.95;;;-5.10;99.90;;;;;;21026069;28;20056;-53
2022/03/06 00:23:16;;;;;;;26.50;10.95;;;-5.40;99.90;;;;;;20981571;28;20708;-55
2022/03/06 00:33:18;;;;;;;29.13;12.57;;;-5.40;99.90;;;;;;20981622;28;20101;-54
2022/03/06 00:43:21;;;;;;;26.48;11.52;;;-5.40;99.90;;;;;;20980765;28;20488;-54
2022/03/06 00:53:24;;;;;;;28.02;12.80;;;-5.40;99.90;;;;;;20980754;28;20040;-51
2022/03/06 01:03:27;;;;;;;28.80;12.95;;;-5.40;99.90;;;;;;20980023;28;20487;-56
2022/03/06 01:13:29;;;;;;;25.88;11.63;;;-5.30;99.90;;;;;;21022051;28;20400;-53
2022/03/06 01:23:32;;;;;;;23.50;11.38;;;-5.30;99.90;;;;;;21063044;28;20116;-56
2022/03/06 01:33:34;;;;;;;27.23;11.75;;;-5.20;99.90;;;;;;21073328;28;20109;-53
2022/03/06 01:43:37;;;;;;;25.13;11.32;;;-5.20;99.90;;;;;;21077453;28;20032;-52
2022/03/06 01:53:40;;;;;;;25.67;11.52;;;-5.10;99.90;;;;;;21077107;28;20400;-55
2022/03/06 02:03:43;;;;;;;24.95;10.80;;;-5.00;99.90;;;;;;21075890;28;20040;-53
2022/03/06 02:13:45;;;;;;;32.45;11.82;;;-4.90;99.90;;;;;;21030153;28;20110;-52
2022/03/06 02:23:49;;;;;;;25.83;11.65;;;-4.90;99.90;;;;;;20990701;28;20086;-54
2022/03/06 02:33:51;;;;;;;26.85;12.68;;;-4.80;99.90;;;;;;20973128;28;20032;-54
2022/03/06 02:43:54;;;;;;;26.10;12.00;;;-4.70;99.90;;;;;;20988542;28;20109;-53
2022/03/06 02:53:56;;;;;;;25.20;11.07;;;-4.60;99.90;;;;;;20987918;28;20471;-53
2022/03/06 03:03:59;;;;;;;23.02;11.80;;;-4.60;99.90;;;;;;20988363;28;20538;-55
2022/03/06 03:14:03;;;;;;;24.23;10.75;;;-4.60;99.90;;;;;;21033404;28;20101;-56
2022/03/06 03:24:06;;;;;;;27.63;13.00;;;-4.50;99.90;;;;;;21069716;28;20044;-56
2022/03/06 03:34:09;;;;;;;25.10;12.25;;;-4.30;99.90;;;;;;21068720;28;20059;-56
2022/03/06 03:44:12;;;;;;;23.88;10.32;;;-4.00;99.90;;;;;;21051711;28;20089;-54
2022/03/06 03:54:14;;;;;;;20.13;10.50;;;-3.80;99.90;;;;;;21067008;28;20035;-56
2022/03/06 04:04:16;;;;;;;16.75;9.00;;;-3.60;99.90;;;;;;21067036;28;20532;-57
2022/03/06 04:14:19;;;;;;;16.23;8.90;;;-3.30;99.90;;;;;;21016064;28;20487;-53
2022/03/06 04:24:21;;;;;;;18.20;9.23;;;-3.30;99.90;;;;;;20981882;28;20037;-57
2022/03/06 04:34:24;;;;;;;20.63;8.98;;;-3.30;99.90;;;;;;20981153;28;20082;-56
2022/03/06 04:44:27;;;;;;;19.08;8.80;;;-3.20;99.90;;;;;;20980688;28;20041;-56
2022/03/06 04:54:30;;;;;;;18.33;7.80;;;-3.20;99.90;;;;;;20980761;28;20033;-57
2022/03/06 05:04:32;;;;;;;17.45;9.27;;;-3.30;99.90;;;;;;20985101;28;20074;-56
2022/03/06 05:14:34;;;;;;;20.10;9.55;;;-3.20;99.90;;;;;;21047665;28;20450;-57
2022/03/06 05:24:37;;;;;;;17.42;9.23;;;-3.20;99.90;;;;;;21079396;28;20040;-54
2022/03/06 05:34:39;;;;;;;18.35;7.95;;;-3.30;99.90;;;;;;21078317;28;20036;-57
2022/03/06 05:44:43;;;;;;;21.92;8.88;;;-3.40;99.90;;;;;;21025846;28;20036;-55
2022/03/06 05:54:45;;;;;;;19.10;8.82;;;-3.30;99.90;;;;;;20993775;28;20082;-56
2022/03/06 06:04:48;;;;;;;17.55;8.48;;;-3.40;99.90;;;;;;20991977;28;20028;-57
2022/03/06 06:14:51;;;;;;;17.23;8.20;;;-3.40;99.90;;;;;;21043199;28;20052;-57
2022/03/06 06:24:55;;;;;;;15.65;7.80;;;-3.30;99.90;;;;;;21074498;28;20356;-56
2022/03/06 06:34:57;;;;;;;17.10;8.00;;;-3.20;99.90;;;;;;21074742;28;20475;-54
2022/03/06 06:45:00;;;;;;;17.08;8.57;;;-3.00;99.90;;;;;;21072675;28;20487;-56
2022/03/06 06:55:05;;;;;;;17.85;8.27;;;-2.80;99.90;;;;;;21073257;28;20101;-56
2022/03/06 07:05:09;;;;;;;15.27;7.95;;;-2.80;99.90;;;;;;21071229;28;20036;-54
2022/03/06 07:15:13;;;;;;;14.55;7.88;;;-2.60;99.90;;;;;;21069762;28;20105;-56
2022/03/06 07:25:16;;;;;;;19.17;8.90;;;-2.30;99.90;;;;;;21069259;28;20509;-52
2022/03/06 07:35:20;;;;;;;17.70;8.70;;;-1.70;99.90;;;;;;21051276;28;20108;-54
2022/03/06 07:45:23;;;;;;;16.48;8.55;;;-1.10;99.90;;;;;;21051226;28;20428;-56
2022/03/06 07:55:26;;;;;;;14.57;8.52;;;-0.20;99.90;;;;;;21067913;28;20100;-58
2022/03/06 08:05:28;;;;;;;16.58;8.32;;;0.30;99.90;;;;;;21066953;28;20093;-55
2022/03/06 08:15:31;;;;;;;15.52;8.50;;;0.60;99.90;;;;;;21006313;28;20065;-57
2022/03/06 08:25:33;;;;;;;15.43;8.90;;;0.90;99.60;;;;;;20981241;28;20044;-53
2022/03/06 08:35:36;;;;;;;18.15;8.65;;;0.60;98.40;;;;;;20981065;28;20044;-53
2022/03/06 08:45:39;;;;;;;16.55;8.40;;;0.40;98.70;;;;;;20980188;28;20033;-56
2022/03/06 08:55:41;;;;;;;15.63;8.57;;;0.80;98.30;;;;;;20981726;28;20400;-54
2022/03/06 09:05:44;;;;;;;17.52;8.95;;;1.60;96.40;;;;;;20980011;28;20066;-57
2022/03/06 09:15:46;;;;;;;18.67;8.52;;;1.80;96.20;;;;;;21040612;28;20589;-57
2022/03/06 09:25:48;;;;;;;14.65;8.02;;;1.80;96.00;;;;;;21045929;28;20039;-53
2022/03/06 09:35:51;;;;;;;16.20;9.18;;;1.70;96.00;;;;;;21062914;28;20090;-53
2022/03/06 09:46:03;;;;;;;16.15;8.18;;;1.40;96.00;;;;;;21062354;28;20093;-57
2022/03/06 09:56:06;;;;;;;20.60;9.48;;;1.30;96.30;;;;;;21056101;28;20086;-58
2022/03/06 10:06:11;;;;;;;18.90;8.80;;;1.40;96.10;;;;;;21076184;28;20085;-55
2022/03/06 10:16:21;;;;;;;15.07;8.15;;;1.50;96.10;;;;;;21058602;28;20487;-58
2022/03/06 10:26:26;;;;;;;15.53;8.40;;;1.60;96.20;;;;;;21074982;28;20032;-57
2022/03/06 10:36:34;;;;;;;16.20;8.35;;;1.60;95.90;;;;;;21073620;28;20050;-58
2022/03/06 10:46:39;;;;;;;14.68;8.38;;;1.80;95.50;;;;;;21073030;28;20028;-55
2022/03/06 10:56:44;;;;;;;17.58;8.93;;;1.80;94.40;;;;;;21054988;28;20086;-57
2022/03/06 11:06:50;;;;;;;14.63;7.95;;;2.00;95.10;;;;;;21070967;28;20048;-57
2022/03/06 11:16:53;;;;;;;14.63;8.02;;;2.60;94.20;;;;;;20982575;28;20412;-59
2022/03/06 11:27:21;;;;;;;28.77;8.45;;;3.20;94.50;;;;;;20986071;28;20040;-58
2022/03/06 11:37:28;;;;;;;15.82;8.32;;;3.70;92.20;;;;;;20876364;28;20053;-57
2022/03/06 11:47:41;;;;;;;16.60;8.73;;;4.30;93.80;;;;;;20875790;28;20414;-57
2022/03/06 11:57:44;;;;;;;12.25;7.13;;;4.50;90.70;;;;;;20875393;28;20045;-56
2022/03/06 12:07:49;;;;;;;16.63;8.23;;;3.90;91.10;;;;;;20895121;28;20105;-63
2022/03/06 12:17:52;;;;;;;14.55;7.97;;;4.10;92.20;;;;;;21060444;28;20048;-58
2022/03/06 12:28:01;;;;;;;13.95;7.88;;;4.10;89.10;;;;;;21065192;28;20044;-58
2022/03/06 12:38:04;;;;;;;13.73;7.60;;;3.40;90.30;;;;;;21048074;28;20046;-57
2022/03/06 12:48:11;;;;;;;15.48;8.52;;;3.50;89.90;;;;;;21048425;28;20040;-59
2022/03/06 12:58:13;;;;;;;15.80;7.82;;;4.10;91.60;;;;;;21064123;28;20085;-60
2022/03/06 13:08:16;;;;;;;15.95;8.25;;;5.20;89.10;;;;;;21063537;28;20040;-59
2022/03/06 13:18:21;;;;;;;14.45;8.00;;;5.50;87.60;;;;;;20980393;28;20446;-60
2022/03/06 13:28:24;;;;;;;15.65;8.20;;;5.70;85.80;;;;;;20988607;28;20063;-59
2022/03/06 13:38:29;;;;;;;12.82;7.53;;;5.30;86.10;;;;;;20993120;28;20078;-57
2022/03/06 13:48:34;;;;;;;13.90;7.95;;;5.30;84.50;;;;;;20992956;28;20373;-60
2022/03/06 13:58:45;;;;;;;13.85;7.72;;;4.90;82.50;;;;;;20992583;28;20062;-58
2022/03/06 14:08:47;;;;;;;15.20;8.13;;;4.00;86.60;;;;;;20995290;28;20036;-57
2022/03/06 14:18:57;;;;;;;14.32;8.23;;;3.40;88.20;;;;;;21074920;28;20090;-55
2022/03/06 14:29:05;;;;;;;16.27;8.63;;;2.90;87.90;;;;;;21073990;28;20036;-57
2022/03/06 14:39:10;;;;;;;16.27;8.27;;;2.60;88.90;;;;;;21072476;28;20105;-58
2022/03/06 14:49:14;;;;;;;16.63;8.80;;;2.20;89.60;;;;;;21073119;28;20036;-54
2022/03/06 14:59:16;;;;;;;16.73;9.02;;;1.90;90.50;;;;;;21071590;28;20024;-55
2022/03/06 15:09:19;;;;;;;19.15;8.90;;;1.60;90.40;;;;;;21063767;28;20372;-54
2022/03/06 15:19:21;;;;;;;17.92;9.18;;;1.40;91.10;;;;;;20986232;28;20074;-57
2022/03/06 15:29:24;;;;;;;17.92;8.90;;;1.00;91.80;;;;;;20986450;28;20472;-56
2022/03/06 15:39:27;;;;;;;17.10;9.10;;;0.60;92.20;;;;;;20985279;28;20480;-54
2022/03/06 15:49:30;;;;;;;20.58;9.98;;;0.00;93.10;;;;;;20985126;28;20391;-58
2022/03/06 15:59:33;;;;;;;18.30;9.05;;;-0.40;94.00;;;;;;20983303;28;20036;-57
2022/03/06 16:09:36;;;;;;;18.05;9.35;;;-0.80;94.80;;;;;;20992741;28;20032;-57
2022/03/06 16:19:38;;;;;;;19.10;9.95;;;-1.20;95.70;;;;;;21065478;28;20044;-56
2022/03/06 16:29:43;;;;;;;21.48;10.85;;;-1.60;96.30;;;;;;20993498;28;20106;-54
2022/03/06 16:39:48;;;;;;;20.50;9.88;;;-1.90;96.70;;;;;;20982280;28;20117;-53
2022/03/06 16:49:51;;;;;;;19.58;10.13;;;-2.20;97.60;;;;;;20981810;28;20085;-57
2022/03/06 16:59:54;;;;;;;23.73;10.50;;;-2.40;98.20;;;;;;20984545;28;20102;-56
2022/03/06 17:09:57;;;;;;;19.67;10.35;;;-2.70;99.00;;;;;;20997822;28;20173;-57
2022/03/06 17:19:59;;;;;;;22.20;11.32;;;-3.00;99.70;;;;;;20995476;28;20105;-57
2022/03/06 17:30:04;;;;;;;20.02;9.80;;;-3.20;99.90;;;;;;20995624;28;20040;-51
2022/03/06 17:40:07;;;;;;;19.73;9.57;;;-3.30;99.90;;;;;;20994635;28;20105;-54
2022/03/06 17:50:11;;;;;;;21.65;10.48;;;-3.50;99.90;;;;;;20993568;28;20040;-55
2022/03/06 18:00:15;;;;;;;20.25;8.95;;;-3.70;99.90;;;;;;20992766;28;20032;-56
2022/03/06 18:10:17;;;;;;;16.88;8.20;;;-3.90;99.90;;;;;;21007586;28;20483;-55
2022/03/06 18:20:20;;;;;;;22.67;10.00;;;-4.10;99.90;;;;;;21076109;28;20051;-54
2022/03/06 18:30:23;;;;;;;20.10;9.73;;;-4.30;99.90;;;;;;21075086;28;20449;-55
2022/03/06 18:40:26;;;;;;;25.40;12.35;;;-4.40;99.90;;;;;;21057161;28;20093;-53
2022/03/06 18:50:29;;;;;;;25.65;12.13;;;-4.50;99.90;;;;;;21072922;28;20092;-54
2022/03/06 19:00:32;;;;;;;20.92;9.50;;;-4.50;99.90;;;;;;21072408;28;20444;-55
2022/03/06 19:10:36;;;;;;;20.75;8.90;;;-4.40;99.90;;;;;;21054397;28;20036;-54
2022/03/06 19:20:39;;;;;;;21.83;9.70;;;-4.30;99.90;;;;;;21070798;28;20110;-55
2022/03/06 19:30:44;;;;;;;18.60;9.10;;;-4.40;99.90;;;;;;21053015;28;20036;-55
2022/03/06 19:40:49;;;;;;;21.42;9.70;;;-4.60;99.90;;;;;;21069923;28;20475;-54
2022/03/06 19:50:53;;;;;;;21.27;10.07;;;-4.60;99.90;;;;;;21068085;28;20131;-55
2022/03/06 20:00:55;;;;;;;27.60;10.02;;;-4.70;99.90;;;;;;21066948;28;20032;-55
2022/03/06 20:11:02;;;;;;;23.17;9.63;;;-4.80;99.90;;;;;;21044876;28;20510;-54
2022/03/06 20:21:07;;;;;;;20.63;10.05;;;-4.90;99.90;;;;;;20982096;28;20113;-55
2022/03/06 20:31:10;;;;;;;24.25;11.95;;;-5.00;99.90;;;;;;20982740;28;20036;-56
2022/03/06 20:41:12;;;;;;;23.15;9.48;;;-5.00;99.90;;;;;;20963919;28;20433;-55
2022/03/06 20:51:16;;;;;;;23.67;10.45;;;-5.10;99.90;;;;;;20981277;28;20541;-52
2022/03/06 21:01:20;;;;;;;25.90;11.82;;;-5.30;99.90;;;;;;20980287;28;20028;-56
2022/03/06 21:11:23;;;;;;;25.77;10.90;;;-5.40;99.90;;;;;;21004864;28;20533;-55
2022/03/06 21:21:27;;;;;;;27.88;13.18;;;-5.50;99.90;;;;;;21063038;28;20117;-53
2022/03/06 21:31:31;;;;;;;28.60;13.43;;;-5.50;99.90;;;;;;21046767;28;20054;-51
2022/03/06 21:41:35;;;;;;;27.30;13.35;;;-5.50;99.90;;;;;;21063071;28;20073;-52
2022/03/06 21:51:40;;;;;;;23.70;11.77;;;-5.50;99.90;;;;;;21074931;28;20479;-54
2022/03/06 22:01:48;;;;;;;23.05;11.23;;;-5.50;99.90;;;;;;21077078;28;20035;-54
2022/03/06 22:11:50;;;;;;;25.83;11.30;;;-5.70;99.90;;;;;;21047020;28;20032;-55
2022/03/06 22:21:53;;;;;;;25.17;11.50;;;-5.80;99.90;;;;;;20991971;28;20036;-53
2022/03/06 22:31:56;;;;;;;27.23;11.57;;;-5.80;99.90;;;;;;20991170;28;20036;-55
2022/03/06 22:41:58;;;;;;;24.75;11.20;;;-5.80;99.90;;;;;;20990445;28;20045;-56
2022/03/06 22:52:01;;;;;;;25.85;10.93;;;-5.90;99.90;;;;;;20990004;28;20109;-54
2022/03/06 23:02:04;;;;;;;26.23;12.20;;;-5.90;99.90;;;;;;20988581;28;20032;-53
2022/03/06 23:12:08;;;;;;;23.10;11.40;;;-5.80;99.90;;;;;;21018045;28;20418;-54
2022/03/06 23:22:11;;;;;;;28.00;12.50;;;-5.80;99.90;;;;;;21071880;28;20065;-54
2022/03/06 23:32:14;;;;;;;29.42;12.77;;;-6.00;99.90;;;;;;21070278;28;20416;-52
2022/03/06 23:42:16;;;;;;;25.83;12.25;;;-6.10;99.90;;;;;;21068785;28;20027;-52
2022/03/06 23:52:19;;;;;;;25.92;11.48;;;-6.10;99.90;;;;;;21068453;28;20032;-56
